createdAt,value
2022-07-29T00:00:01.362Z,15.54
2022-07-29T00:02:28.817Z,15.53
2022-07-29T00:04:55.329Z,15.41
2022-07-29T00:07:22.096Z,15.50
2022-07-29T00:09:51.709Z,15.44
2022-07-29T00:12:25.456Z,15.50
2022-07-29T00:14:54.631Z,15.41
2022-07-29T00:17:21.140Z,15.44
2022-07-29T00:19:47.622Z,15.35
2022-07-29T00:22:14.448Z,15.36
2022-07-29T00:24:40.894Z,15.26
2022-07-29T00:27:07.405Z,15.30
2022-07-29T00:29:35.053Z,15.31
2022-07-29T00:32:02.750Z,15.39
2022-07-29T00:34:47.861Z,15.34
2022-07-29T00:37:14.364Z,15.32
2022-07-29T00:39:40.875Z,15.27
2022-07-29T00:42:07.670Z,15.37
2022-07-29T00:44:41.251Z,15.37
2022-07-29T00:47:08.849Z,15.33
2022-07-29T00:49:35.805Z,15.32
2022-07-29T00:52:04.049Z,15.37
2022-07-29T00:54:31.254Z,15.40
2022-07-29T00:56:59.626Z,15.43
2022-07-29T00:59:34.576Z,15.45
2022-07-29T01:02:02.871Z,15.44
2022-07-29T01:04:30.705Z,15.47
2022-07-29T01:06:57.281Z,15.44
2022-07-29T01:09:45.404Z,15.49
2022-07-29T01:12:11.638Z,15.34
2022-07-29T01:14:38.688Z,15.24
2022-07-29T01:17:12.143Z,15.26
2022-07-29T01:19:50.675Z,15.22
2022-07-29T01:22:29.989Z,15.15
2022-07-29T01:25:21.884Z,15.14
2022-07-29T01:28:08.496Z,15.12
2022-07-29T01:30:39.571Z,15.08
2022-07-29T01:33:08.904Z,15.05
2022-07-29T01:35:42.299Z,14.98
2022-07-29T01:38:26.497Z,14.96
2022-07-29T01:40:57.167Z,15.00
2022-07-29T01:43:33.816Z,15.01
2022-07-29T01:46:03.016Z,15.05
2022-07-29T01:48:38.236Z,14.98
2022-07-29T01:51:29.444Z,14.97
2022-07-29T01:54:09.589Z,14.91
2022-07-29T01:56:37.250Z,14.85
2022-07-29T01:59:06.265Z,14.89
2022-07-29T02:01:34.115Z,14.90
2022-07-29T02:04:04.266Z,14.94
2022-07-29T02:06:33.167Z,14.86
2022-07-29T02:09:00.585Z,14.78
2022-07-29T02:11:27.135Z,14.78
2022-07-29T02:13:55.347Z,14.82
2022-07-29T02:16:22.950Z,14.82
2022-07-29T02:18:51.579Z,14.78
2022-07-29T02:21:22.523Z,14.75
2022-07-29T02:23:51.213Z,14.77
2022-07-29T02:26:19.357Z,14.75
2022-07-29T02:28:46.176Z,14.68
2022-07-29T02:31:13.659Z,14.65
2022-07-29T02:33:41.908Z,14.63
2022-07-29T02:36:08.768Z,14.57
2022-07-29T02:38:51.505Z,14.56
2022-07-29T02:41:30.625Z,14.55
2022-07-29T02:44:03.370Z,14.49
2022-07-29T02:46:35.266Z,14.51
2022-07-29T02:49:17.055Z,14.50
2022-07-29T02:51:52.540Z,14.47
2022-07-29T02:54:33.353Z,14.49
2022-07-29T02:57:02.366Z,14.42
2022-07-29T02:59:31.936Z,14.30
2022-07-29T03:01:59.962Z,14.40
2022-07-29T03:04:29.483Z,14.38
2022-07-29T03:06:59.742Z,14.30
2022-07-29T03:09:27.149Z,14.35
2022-07-29T03:11:55.512Z,14.33
2022-07-29T03:14:23.962Z,14.42
2022-07-29T03:16:51.754Z,14.39
2022-07-29T03:19:19.445Z,14.40
2022-07-29T03:21:46.053Z,14.36
2022-07-29T03:24:34.961Z,14.38
2022-07-29T03:27:02.060Z,14.40
2022-07-29T03:29:33.593Z,14.35
2022-07-29T03:32:02.714Z,14.42
2022-07-29T03:34:30.190Z,14.43
2022-07-29T03:36:56.764Z,14.44
2022-07-29T03:39:27.309Z,14.55
2022-07-29T03:41:57.460Z,14.48
2022-07-29T03:44:25.065Z,14.56
2022-07-29T03:46:52.510Z,14.62
2022-07-29T03:49:20.053Z,14.61
2022-07-29T03:51:47.014Z,14.63
2022-07-29T03:54:13.810Z,14.62
2022-07-29T03:56:48.509Z,14.61
2022-07-29T03:59:16.827Z,14.68
2022-07-29T04:01:43.865Z,14.73
2022-07-29T04:04:10.626Z,14.74
2022-07-29T04:06:44.329Z,14.82
2022-07-29T04:09:12.905Z,14.90
2022-07-29T04:12:02.688Z,14.93
2022-07-29T04:14:27.196Z,14.98
2022-07-29T04:16:54.142Z,15.08
2022-07-29T04:19:20.791Z,15.16
2022-07-29T04:21:47.804Z,15.17
2022-07-29T04:24:14.561Z,15.23
2022-07-29T04:26:41.632Z,15.31
2022-07-29T04:29:08.268Z,15.30
2022-07-29T04:31:35.045Z,15.33
2022-07-29T04:34:01.635Z,15.39
2022-07-29T04:36:28.729Z,15.55
2022-07-29T04:38:56.217Z,15.48
2022-07-29T04:41:22.650Z,15.59
2022-07-29T04:43:50.003Z,15.61
2022-07-29T04:46:16.827Z,15.67
2022-07-29T04:48:43.540Z,15.67
2022-07-29T04:51:10.208Z,15.70
2022-07-29T04:53:36.651Z,15.74
2022-07-29T04:56:04.118Z,15.70
2022-07-29T04:58:30.771Z,15.70
2022-07-29T05:00:57.323Z,15.80
2022-07-29T05:03:23.816Z,15.89
2022-07-29T05:05:50.539Z,15.97
2022-07-29T05:08:17.085Z,16.06
2022-07-29T05:10:43.610Z,16.20
2022-07-29T05:13:10.394Z,16.35
2022-07-29T05:15:37.668Z,16.40
2022-07-29T05:18:04.797Z,16.59
2022-07-29T05:20:31.911Z,16.70
2022-07-29T05:23:04.829Z,16.71
2022-07-29T05:25:42.945Z,16.83
2022-07-29T05:28:12.283Z,16.94
2022-07-29T05:30:39.474Z,17.00
2022-07-29T05:33:06.043Z,17.07
2022-07-29T05:35:32.784Z,17.22
2022-07-29T05:37:59.380Z,17.36
2022-07-29T05:40:25.817Z,17.47
2022-07-29T05:42:52.483Z,17.59
2022-07-29T05:45:19.129Z,17.76
2022-07-29T05:47:46.486Z,17.79
2022-07-29T05:50:13.391Z,18.19
2022-07-29T05:52:40.128Z,18.69
2022-07-29T05:55:06.902Z,19.53
2022-07-29T05:57:33.748Z,20.59
2022-07-29T06:00:00.439Z,21.61
2022-07-29T06:02:27.070Z,22.23
2022-07-29T06:04:53.836Z,22.65
2022-07-29T06:07:20.811Z,23.02
2022-07-29T06:09:47.438Z,24.21
2022-07-29T06:12:14.174Z,25.36
2022-07-29T06:14:41.106Z,26.40
2022-07-29T06:17:07.899Z,26.91
2022-07-29T06:19:37.682Z,27.33
2022-07-29T06:22:04.869Z,27.48
2022-07-29T06:24:31.677Z,26.94
2022-07-29T06:26:58.359Z,27.02
2022-07-29T06:29:24.865Z,27.20
2022-07-29T06:31:51.707Z,28.35
2022-07-29T06:34:18.582Z,28.88
2022-07-29T06:36:46.036Z,28.85
2022-07-29T06:39:12.941Z,29.03
2022-07-29T06:41:39.825Z,28.35
2022-07-29T06:44:06.506Z,28.55
2022-07-29T06:46:33.621Z,29.29
2022-07-29T06:49:03.170Z,29.62
2022-07-29T06:51:29.917Z,29.52
2022-07-29T06:54:02.454Z,29.33
2022-07-29T06:56:39.663Z,30.20
2022-07-29T06:59:10.330Z,30.61
2022-07-29T07:01:38.643Z,30.79
2022-07-29T07:04:05.379Z,31.63
2022-07-29T07:06:31.946Z,32.25
2022-07-29T07:08:58.584Z,31.76
2022-07-29T07:11:25.078Z,31.26
2022-07-29T07:13:51.625Z,31.50
2022-07-29T07:16:18.186Z,31.36
2022-07-29T07:18:46.154Z,32.02
2022-07-29T07:21:13.296Z,32.24
2022-07-29T07:23:46.045Z,32.11
2022-07-29T07:26:12.541Z,31.30
2022-07-29T07:28:39.546Z,31.18
2022-07-29T07:31:06.211Z,30.41
2022-07-29T07:33:32.702Z,31.75
2022-07-29T07:35:59.464Z,31.83
2022-07-29T07:38:26.019Z,31.64
2022-07-29T07:40:52.768Z,31.72
2022-07-29T07:43:19.338Z,31.05
2022-07-29T07:45:46.192Z,30.69
2022-07-29T07:48:12.757Z,29.76
2022-07-29T07:50:39.622Z,29.13
2022-07-29T07:53:06.472Z,28.34
2022-07-29T07:56:00.024Z,27.70
2022-07-29T07:58:19.698Z,26.89
2022-07-29T08:00:46.307Z,26.93
2022-07-29T08:03:16.817Z,26.90
2022-07-29T08:05:44.056Z,27.18
2022-07-29T08:08:11.047Z,27.49
2022-07-29T08:11:00.594Z,27.02
2022-07-29T08:13:31.309Z,26.47
2022-07-29T08:16:03.252Z,25.66
2022-07-29T08:18:31.092Z,25.64
2022-07-29T08:20:58.626Z,25.59
2022-07-29T08:23:25.540Z,25.87
2022-07-29T08:25:52.436Z,26.08
2022-07-29T08:28:21.729Z,26.17
2022-07-29T08:30:52.873Z,25.98
2022-07-29T08:33:19.618Z,25.89
2022-07-29T08:35:46.607Z,26.28
2022-07-29T08:38:13.601Z,26.48
2022-07-29T08:40:40.673Z,26.40
2022-07-29T08:43:08.686Z,25.92
2022-07-29T08:45:48.062Z,26.11
2022-07-29T08:48:22.418Z,26.09
2022-07-29T08:50:52.457Z,26.27
2022-07-29T08:53:19.413Z,26.07
2022-07-29T08:55:48.105Z,25.11
2022-07-29T08:58:15.947Z,24.77
2022-07-29T09:00:45.217Z,25.31
2022-07-29T09:03:17.561Z,25.82
2022-07-29T09:05:47.849Z,26.34
2022-07-29T09:08:16.440Z,25.93
2022-07-29T09:10:43.203Z,25.35
2022-07-29T09:13:09.770Z,25.11
2022-07-29T09:15:36.258Z,25.40
2022-07-29T09:18:04.270Z,25.48
2022-07-29T09:20:50.830Z,25.10
2022-07-29T09:23:24.072Z,25.00
2022-07-29T09:25:51.013Z,24.58
2022-07-29T09:28:17.952Z,24.21
2022-07-29T09:30:59.330Z,24.12
2022-07-29T09:33:33.965Z,24.26
2022-07-29T09:36:06.238Z,24.64
2022-07-29T09:38:33.750Z,24.58
2022-07-29T09:41:05.896Z,24.29
2022-07-29T09:43:33.512Z,23.98
2022-07-29T09:46:14.134Z,24.12
2022-07-29T09:48:41.072Z,24.08
2022-07-29T09:51:20.653Z,23.87
2022-07-29T09:53:49.059Z,23.90
2022-07-29T09:56:15.564Z,24.05
2022-07-29T09:58:42.036Z,23.92
2022-07-29T10:01:08.797Z,23.99
2022-07-29T10:03:52.027Z,23.91
2022-07-29T10:06:18.816Z,23.95
2022-07-29T10:08:45.411Z,23.97
2022-07-29T10:11:14.502Z,23.93
2022-07-29T10:13:43.030Z,23.85
2022-07-29T10:16:09.880Z,23.84
2022-07-29T10:18:36.542Z,23.89
2022-07-29T10:21:03.812Z,24.08
2022-07-29T10:23:31.082Z,24.12
2022-07-29T10:26:14.014Z,24.34
2022-07-29T10:28:40.754Z,24.49
2022-07-29T10:31:09.425Z,24.60
2022-07-29T10:33:54.604Z,24.74
2022-07-29T10:36:24.573Z,24.59
2022-07-29T10:39:03.438Z,24.42
2022-07-29T10:41:44.470Z,24.45
2022-07-29T10:44:29.974Z,24.78
2022-07-29T10:46:56.825Z,24.80
2022-07-29T10:49:27.700Z,24.93
2022-07-29T10:52:08.560Z,24.82
2022-07-29T10:54:43.719Z,24.45
2022-07-29T10:57:17.756Z,24.20
2022-07-29T10:59:46.380Z,24.13
2022-07-29T11:02:42.406Z,24.02
2022-07-29T11:05:20.170Z,24.15
2022-07-29T11:08:20.116Z,24.32
2022-07-29T11:10:51.630Z,24.15
2022-07-29T11:13:43.169Z,23.97
2022-07-29T11:16:09.677Z,23.65
2022-07-29T11:18:37.837Z,23.54
2022-07-29T11:21:04.554Z,23.71
2022-07-29T11:23:40.417Z,23.97
2022-07-29T11:26:23.320Z,24.00
2022-07-29T11:29:03.345Z,24.08
2022-07-29T11:31:34.336Z,24.09
2022-07-29T11:34:20.931Z,24.03
2022-07-29T11:37:15.042Z,24.04
2022-07-29T11:39:47.669Z,24.11
2022-07-29T11:42:28.785Z,24.04
2022-07-29T11:45:42.004Z,24.08
2022-07-29T11:48:05.325Z,24.39
2022-07-29T11:50:45.944Z,24.43
2022-07-29T11:53:15.273Z,24.24
2022-07-29T11:55:51.626Z,24.20
2022-07-29T11:58:25.025Z,24.21
2022-07-29T12:00:52.805Z,24.43
2022-07-29T12:03:33.581Z,24.37
2022-07-29T12:06:02.792Z,24.39
2022-07-29T12:08:29.429Z,24.65
2022-07-29T12:10:55.987Z,24.76
2022-07-29T12:13:22.973Z,24.61
2022-07-29T12:16:05.228Z,24.89
2022-07-29T12:18:32.012Z,24.89
2022-07-29T12:21:03.421Z,24.98
2022-07-29T12:23:34.943Z,25.32
2022-07-29T12:26:05.186Z,25.09
2022-07-29T12:28:38.680Z,24.99
2022-07-29T12:31:05.886Z,24.92
2022-07-29T12:33:32.455Z,25.08
2022-07-29T12:36:06.955Z,24.95
2022-07-29T12:38:35.833Z,24.76
2022-07-29T12:41:02.836Z,24.71
2022-07-29T12:43:31.791Z,24.37
2022-07-29T12:45:58.362Z,24.19
2022-07-29T12:48:38.891Z,24.13
2022-07-29T12:51:07.712Z,24.32
2022-07-29T12:53:34.944Z,24.67
2022-07-29T12:56:20.692Z,24.58
2022-07-29T12:58:53.819Z,24.57
2022-07-29T13:01:21.985Z,24.70
2022-07-29T13:03:57.195Z,24.76
2022-07-29T13:06:30.753Z,24.62
2022-07-29T13:09:08.280Z,24.67
2022-07-29T13:11:44.019Z,24.38
2022-07-29T13:14:15.802Z,24.39
2022-07-29T13:17:11.726Z,24.33
2022-07-29T13:19:43.223Z,24.35
2022-07-29T13:22:14.996Z,24.37
2022-07-29T13:24:58.804Z,24.31
2022-07-29T13:27:30.404Z,24.66
2022-07-29T13:29:58.750Z,24.96
2022-07-29T13:32:28.522Z,25.10
2022-07-29T13:35:01.159Z,25.30
2022-07-29T13:37:33.924Z,25.72
2022-07-29T13:40:00.916Z,25.85
2022-07-29T13:42:27.754Z,25.66
2022-07-29T13:44:54.869Z,25.64
2022-07-29T13:47:22.023Z,25.51
2022-07-29T13:49:49.239Z,25.71
2022-07-29T13:52:16.722Z,25.74
2022-07-29T13:54:44.167Z,25.95
2022-07-29T13:57:12.063Z,25.76
2022-07-29T13:59:42.870Z,25.87
2022-07-29T14:02:10.705Z,26.01
2022-07-29T14:04:39.611Z,26.01
2022-07-29T14:07:06.901Z,25.68
2022-07-29T14:09:41.190Z,25.56
2022-07-29T14:12:08.904Z,25.52
2022-07-29T14:14:37.625Z,25.34
2022-07-29T14:17:07.234Z,25.10
2022-07-29T14:19:36.601Z,24.78
2022-07-29T14:22:05.989Z,24.78
2022-07-29T14:24:33.871Z,24.74
2022-07-29T14:27:05.480Z,24.53
2022-07-29T14:29:37.775Z,24.55
2022-07-29T14:32:08.957Z,24.52
2022-07-29T14:34:39.307Z,24.59
2022-07-29T14:37:06.715Z,24.78
2022-07-29T14:39:36.923Z,25.12
2022-07-29T14:42:06.424Z,25.15
2022-07-29T14:44:33.079Z,25.13
2022-07-29T14:47:00.931Z,25.27
2022-07-29T14:49:33.919Z,25.26
2022-07-29T14:52:01.225Z,25.24
2022-07-29T14:54:28.404Z,25.29
2022-07-29T14:56:57.962Z,25.39
2022-07-29T14:59:25.178Z,25.61
2022-07-29T15:01:51.893Z,25.80
2022-07-29T15:04:18.548Z,25.62
2022-07-29T15:06:45.211Z,25.34
2022-07-29T15:09:11.967Z,25.51
2022-07-29T15:11:38.952Z,25.77
2022-07-29T15:14:06.678Z,25.94
2022-07-29T15:16:34.219Z,25.94
2022-07-29T15:19:01.909Z,25.94
2022-07-29T15:21:28.687Z,25.52
2022-07-29T15:23:55.409Z,25.10
2022-07-29T15:26:22.007Z,24.84
2022-07-29T15:28:48.917Z,24.75
2022-07-29T15:31:15.847Z,24.65
2022-07-29T15:33:42.482Z,24.59
2022-07-29T15:36:09.234Z,24.12
2022-07-29T15:38:35.925Z,24.16
2022-07-29T15:41:08.908Z,24.27
2022-07-29T15:43:38.724Z,24.28
2022-07-29T15:46:23.891Z,24.07
2022-07-29T15:48:50.891Z,23.91
2022-07-29T15:51:17.519Z,23.93
2022-07-29T15:53:44.036Z,23.85
2022-07-29T15:56:20.836Z,23.78
2022-07-29T15:58:47.359Z,23.78
2022-07-29T16:01:14.037Z,23.84
2022-07-29T16:03:45.731Z,23.83
2022-07-29T16:06:12.846Z,23.90
2022-07-29T16:08:39.605Z,23.86
2022-07-29T16:11:06.325Z,23.83
2022-07-29T16:13:32.817Z,23.72
2022-07-29T16:16:01.848Z,23.67
2022-07-29T16:18:30.543Z,23.61
2022-07-29T16:20:57.320Z,23.45
2022-07-29T16:23:24.676Z,23.39
2022-07-29T16:25:59.638Z,23.30
2022-07-29T16:28:26.888Z,23.25
2022-07-29T16:30:53.680Z,23.23
2022-07-29T16:33:20.147Z,23.16
2022-07-29T16:35:46.645Z,23.11
2022-07-29T16:38:13.465Z,23.02
2022-07-29T16:40:40.049Z,23.07
2022-07-29T16:43:06.641Z,23.09
2022-07-29T16:45:43.890Z,23.22
2022-07-29T16:48:14.066Z,23.13
2022-07-29T16:50:41.170Z,23.11
2022-07-29T16:53:10.589Z,23.02
2022-07-29T16:55:37.118Z,23.04
2022-07-29T16:58:06.524Z,23.02
2022-07-29T17:00:33.170Z,23.07
2022-07-29T17:03:00.060Z,23.04
2022-07-29T17:05:29.720Z,23.04
2022-07-29T17:08:16.331Z,23.00
2022-07-29T17:10:43.057Z,23.09
2022-07-29T17:13:09.587Z,23.17
2022-07-29T17:15:36.631Z,23.27
2022-07-29T17:18:12.851Z,23.44
2022-07-29T17:20:41.422Z,23.58
2022-07-29T17:23:08.087Z,23.49
2022-07-29T17:25:34.562Z,23.45
2022-07-29T17:28:01.567Z,23.45
2022-07-29T17:30:29.189Z,23.44
2022-07-29T17:32:55.887Z,23.38
2022-07-29T17:35:41.188Z,23.36
2022-07-29T17:38:07.669Z,23.29
2022-07-29T17:40:34.192Z,23.12
2022-07-29T17:43:00.791Z,23.00
2022-07-29T17:45:49.948Z,22.88
2022-07-29T17:48:14.446Z,22.77
2022-07-29T17:50:41.190Z,22.74
2022-07-29T17:53:15.538Z,22.69
2022-07-29T17:55:45.519Z,22.63
2022-07-29T17:58:12.292Z,22.53
2022-07-29T18:00:39.217Z,22.40
2022-07-29T18:03:06.174Z,22.29
2022-07-29T18:05:33.003Z,22.20
2022-07-29T18:07:59.525Z,22.14
2022-07-29T18:10:26.431Z,22.13
2022-07-29T18:12:52.937Z,22.11
2022-07-29T18:15:19.528Z,21.96
2022-07-29T18:17:56.813Z,21.92
2022-07-29T18:20:23.968Z,21.85
2022-07-29T18:22:51.240Z,21.76
2022-07-29T18:25:17.829Z,21.80
2022-07-29T18:27:44.484Z,21.68
2022-07-29T18:30:11.287Z,21.62
2022-07-29T18:32:37.827Z,21.54
2022-07-29T18:35:06.352Z,21.56
2022-07-29T18:38:00.871Z,21.56
2022-07-29T18:40:23.945Z,21.57
2022-07-29T18:42:50.677Z,21.53
2022-07-29T18:45:19.568Z,21.37
2022-07-29T18:47:47.586Z,21.35
2022-07-29T18:50:14.743Z,21.34
2022-07-29T18:52:41.541Z,21.24
2022-07-29T18:55:08.726Z,21.24
2022-07-29T18:57:54.745Z,21.19
2022-07-29T19:00:23.793Z,21.15
2022-07-29T19:02:50.700Z,21.06
2022-07-29T19:05:17.332Z,21.00
2022-07-29T19:07:43.853Z,20.92
2022-07-29T19:10:11.322Z,20.83
2022-07-29T19:12:37.883Z,20.75
2022-07-29T19:15:04.796Z,20.72
2022-07-29T19:17:31.446Z,20.70
2022-07-29T19:19:58.129Z,20.64
2022-07-29T19:22:24.718Z,20.56
2022-07-29T19:24:51.472Z,20.49
2022-07-29T19:27:18.094Z,20.44
2022-07-29T19:29:44.695Z,20.37
2022-07-29T19:32:11.546Z,20.37
2022-07-29T19:34:38.448Z,20.31
2022-07-29T19:37:05.316Z,20.26
2022-07-29T19:39:35.385Z,20.18
2022-07-29T19:42:03.513Z,20.19
2022-07-29T19:44:30.187Z,20.13
2022-07-29T19:46:57.329Z,20.12
2022-07-29T19:49:24.151Z,20.12
2022-07-29T19:51:50.724Z,20.01
2022-07-29T19:54:20.199Z,19.98
2022-07-29T19:56:46.682Z,20.03
2022-07-29T19:59:13.155Z,20.03
2022-07-29T20:01:39.913Z,19.96
2022-07-29T20:04:06.489Z,19.90
2022-07-29T20:06:33.115Z,19.85
2022-07-29T20:08:59.685Z,19.74
2022-07-29T20:11:26.581Z,19.74
2022-07-29T20:13:53.221Z,19.75
2022-07-29T20:16:19.939Z,19.73
2022-07-29T20:18:46.484Z,19.73
2022-07-29T20:21:13.437Z,19.72
2022-07-29T20:23:40.010Z,19.70
2022-07-29T20:26:09.516Z,19.73
2022-07-29T20:28:37.218Z,19.66
2022-07-29T20:31:04.599Z,19.71
2022-07-29T20:33:31.085Z,19.66
2022-07-29T20:35:57.588Z,19.65
2022-07-29T20:38:24.153Z,19.56
2022-07-29T20:40:50.904Z,19.57
2022-07-29T20:43:17.482Z,19.45
2022-07-29T20:45:44.102Z,19.46
2022-07-29T20:48:10.729Z,19.38
2022-07-29T20:50:37.272Z,19.45
2022-07-29T20:53:04.753Z,19.40
2022-07-29T20:55:32.097Z,19.37
2022-07-29T20:57:58.845Z,19.36
2022-07-29T21:00:25.520Z,19.24
2022-07-29T21:02:52.074Z,19.18
2022-07-29T21:05:18.599Z,19.11
2022-07-29T21:07:45.317Z,19.00
2022-07-29T21:10:12.109Z,18.95
2022-07-29T21:12:38.658Z,18.90
2022-07-29T21:15:06.634Z,18.88
2022-07-29T21:17:38.912Z,18.81
2022-07-29T21:20:08.620Z,18.75
2022-07-29T21:22:35.128Z,18.77
2022-07-29T21:25:01.750Z,18.73
2022-07-29T21:27:47.283Z,18.71
2022-07-29T21:30:13.838Z,18.64
2022-07-29T21:32:40.568Z,18.71
2022-07-29T21:35:14.580Z,18.68
2022-07-29T21:37:54.061Z,18.71
2022-07-29T21:40:20.972Z,18.75
2022-07-29T21:42:47.504Z,18.79
2022-07-29T21:45:16.279Z,18.83
2022-07-29T21:47:42.919Z,18.79
2022-07-29T21:50:09.732Z,18.78
2022-07-29T21:52:37.393Z,18.73
2022-07-29T21:55:04.986Z,18.66
2022-07-29T21:57:31.556Z,18.68
2022-07-29T22:00:02.515Z,18.68
2022-07-29T22:02:29.720Z,18.68
2022-07-29T22:04:56.207Z,18.68
2022-07-29T22:07:22.712Z,18.72
2022-07-29T22:09:49.346Z,18.66
2022-07-29T22:12:16.228Z,18.67
2022-07-29T22:14:42.696Z,18.67
2022-07-29T22:17:09.366Z,18.56
2022-07-29T22:19:35.900Z,18.60
2022-07-29T22:22:02.620Z,18.60
2022-07-29T22:24:29.214Z,18.59
2022-07-29T22:26:55.912Z,18.52
2022-07-29T22:29:22.425Z,18.48
2022-07-29T22:31:49.225Z,18.50
2022-07-29T22:34:15.740Z,18.50
2022-07-29T22:36:43.308Z,18.50
2022-07-29T22:39:09.871Z,18.50
2022-07-29T22:41:36.366Z,18.40
2022-07-29T22:44:03.091Z,18.40
2022-07-29T22:46:30.104Z,18.31
2022-07-29T22:48:57.641Z,18.45
2022-07-29T22:51:24.278Z,18.39
2022-07-29T22:53:51.396Z,18.35
2022-07-29T22:56:18.809Z,18.28
2022-07-29T22:58:45.420Z,18.35
2022-07-29T23:01:11.986Z,18.32
2022-07-29T23:03:39.505Z,18.28
2022-07-29T23:06:06.135Z,18.20
2022-07-29T23:08:32.635Z,18.25
2022-07-29T23:10:59.129Z,18.13
2022-07-29T23:13:25.741Z,18.19
2022-07-29T23:15:52.335Z,18.15
2022-07-29T23:18:18.873Z,18.18
2022-07-29T23:20:45.429Z,18.20
2022-07-29T23:23:11.956Z,18.18
2022-07-29T23:25:38.465Z,18.24
2022-07-29T23:28:05.386Z,18.25
2022-07-29T23:30:32.069Z,18.21
2022-07-29T23:32:58.677Z,18.17
2022-07-29T23:35:25.445Z,18.10
2022-07-29T23:37:52.295Z,18.03
2022-07-29T23:40:18.966Z,18.06
2022-07-29T23:42:45.560Z,18.06
2022-07-29T23:45:13.500Z,18.02
2022-07-29T23:47:40.166Z,18.04
2022-07-29T23:50:08.430Z,18.03
2022-07-29T23:52:35.684Z,18.07
2022-07-29T23:55:36.502Z,18.02
2022-07-29T23:57:50.284Z,18.03
